Time;durP1;ratioP1;P1;durP2;ratioP2;P2;SDS_P1;SDS_P2;PMS_P1;PMS_P2;Temp;Humidity;BMP_temperature;BMP_pressure;BME280_temperature;BME280_humidity;BME280_pressure;Samples;Min_cycle;Max_cycle;Signal;HPM_P1;HPM_P2
2023/10/03 00:00:09;;;;;;;9.15;4.72;;;16.90;99.90;;;;;;5045753;28;20067;-85
2023/10/03 00:02:35;;;;;;;8.80;4.40;;;17.00;99.90;;;;;;5042900;28;20048;-85
2023/10/03 00:05:01;;;;;;;7.25;4.20;;;16.90;99.90;;;;;;5045012;28;20044;-85
2023/10/03 00:07:27;;;;;;;12.15;4.75;;;16.90;99.90;;;;;;5042116;28;20027;-85
2023/10/03 00:09:53;;;;;;;12.60;4.68;;;16.90;99.90;;;;;;5048069;28;20080;-85
2023/10/03 00:12:18;;;;;;;12.35;5.35;;;16.80;99.90;;;;;;5063621;28;20090;-83
2023/10/03 00:14:44;;;;;;;8.27;4.10;;;16.80;99.90;;;;;;5066626;28;20040;-82
2023/10/03 00:17:10;;;;;;;9.85;4.93;;;16.80;99.90;;;;;;5044414;28;20059;-83
2023/10/03 00:19:36;;;;;;;7.53;3.90;;;16.70;99.90;;;;;;5065867;28;20050;-82
2023/10/03 00:22:01;;;;;;;9.45;4.63;;;16.80;99.90;;;;;;5046664;28;20454;-82
2023/10/03 00:24:27;;;;;;;6.45;3.72;;;16.70;99.90;;;;;;5052052;28;20033;-83
2023/10/03 00:26:53;;;;;;;13.52;4.35;;;16.80;99.90;;;;;;5063887;28;20043;-82
2023/10/03 00:29:23;;;;;;;13.63;5.90;;;16.80;99.90;;;;;;5048395;28;20060;-83
2023/10/03 00:31:50;;;;;;;11.30;4.88;;;16.80;99.90;;;;;;5046245;28;20036;-83
2023/10/03 00:34:15;;;;;;;11.15;5.30;;;16.80;99.90;;;;;;5065164;28;20049;-82
2023/10/03 00:36:41;;;;;;;18.73;4.72;;;16.90;99.90;;;;;;5048298;28;20040;-83
2023/10/03 00:39:07;;;;;;;11.63;4.90;;;16.90;99.90;;;;;;5048709;28;20076;-82
2023/10/03 00:41:34;;;;;;;13.60;4.75;;;16.90;99.90;;;;;;5062862;28;20071;-83
2023/10/03 00:44:04;;;;;;;8.10;3.63;;;16.90;99.90;;;;;;5062505;28;20044;-82
2023/10/03 00:46:32;;;;;;;13.32;4.35;;;17.00;99.90;;;;;;5043678;28;20571;-83
2023/10/03 00:49:08;;;;;;;11.07;5.05;;;17.00;99.90;;;;;;5064318;28;20052;-82
2023/10/03 00:51:35;;;;;;;10.68;4.80;;;16.90;99.90;;;;;;5042068;28;20037;-82
2023/10/03 00:54:02;;;;;;;13.70;4.68;;;17.00;99.90;;;;;;5044615;28;20045;-83
2023/10/03 00:56:30;;;;;;;12.02;4.47;;;17.00;99.90;;;;;;5054803;28;20045;-82
2023/10/03 00:58:57;;;;;;;9.80;3.95;;;17.00;99.90;;;;;;5058281;28;20044;-83
2023/10/03 01:01:27;;;;;;;10.45;4.70;;;17.00;99.90;;;;;;5040617;28;20041;-82
2023/10/03 01:03:55;;;;;;;14.60;5.57;;;17.10;99.90;;;;;;5060500;28;20048;-82
2023/10/03 01:06:21;;;;;;;10.68;4.15;;;17.10;99.90;;;;;;5037663;28;20040;-83
2023/10/03 01:08:51;;;;;;;9.50;3.88;;;17.20;99.90;;;;;;5038032;28;20049;-82
2023/10/03 01:11:18;;;;;;;7.47;3.72;;;17.10;99.90;;;;;;5041359;28;20031;-83
2023/10/03 01:13:54;;;;;;;6.40;3.03;;;17.20;99.90;;;;;;5075092;28;20071;-83
2023/10/03 01:16:43;;;;;;;12.07;5.43;;;17.10;99.90;;;;;;5058393;28;20131;-82
2023/10/03 01:19:20;;;;;;;11.27;3.95;;;17.10;99.90;;;;;;5064570;28;20056;-83
2023/10/03 01:21:47;;;;;;;11.30;4.88;;;17.10;99.90;;;;;;5060493;28;20048;-83
2023/10/03 01:24:20;;;;;;;12.68;3.63;;;17.10;99.90;;;;;;5043741;28;20128;-82
2023/10/03 01:26:46;;;;;;;10.93;4.22;;;17.00;99.90;;;;;;5063954;28;20040;-83
2023/10/03 01:29:12;;;;;;;12.75;3.58;;;17.00;99.90;;;;;;5063522;28;20040;-83
2023/10/03 01:31:40;;;;;;;10.10;3.75;;;17.00;99.90;;;;;;5063846;28;20103;-83
2023/10/03 01:34:05;;;;;;;12.07;3.22;;;17.00;99.90;;;;;;5055111;28;20048;-84
2023/10/03 01:36:31;;;;;;;10.25;3.83;;;17.00;99.90;;;;;;5059992;28;20106;-83
2023/10/03 01:38:57;;;;;;;11.48;3.40;;;16.90;99.90;;;;;;5062709;28;20068;-82
2023/10/03 01:41:23;;;;;;;10.95;2.97;;;17.00;99.90;;;;;;5045644;28;20052;-83
2023/10/03 01:43:49;;;;;;;8.35;4.45;;;16.90;99.90;;;;;;5043797;28;20040;-83
2023/10/03 01:46:18;;;;;;;7.60;3.55;;;17.00;99.90;;;;;;5044130;28;20108;-83
2023/10/03 01:48:44;;;;;;;9.15;3.25;;;16.90;99.90;;;;;;5044505;28;20032;-83
2023/10/03 01:51:10;;;;;;;9.52;4.10;;;16.90;99.90;;;;;;5044505;28;20048;-83
2023/10/03 01:53:36;;;;;;;9.32;3.55;;;16.90;99.90;;;;;;5057203;28;20512;-82
2023/10/03 01:56:04;;;;;;;11.57;3.55;;;16.90;99.90;;;;;;5063100;28;20041;-83
2023/10/03 01:58:30;;;;;;;11.65;3.67;;;16.90;99.90;;;;;;5057650;28;20047;-83
2023/10/03 02:00:56;;;;;;;8.48;3.58;;;16.90;99.90;;;;;;5040221;28;20638;-84
2023/10/03 02:03:23;;;;;;;10.23;3.75;;;16.90;99.90;;;;;;5043534;28;20052;-84
2023/10/03 02:05:49;;;;;;;13.90;4.68;;;17.00;99.90;;;;;;5058227;28;20476;-85
2023/10/03 02:08:16;;;;;;;11.25;3.88;;;16.90;99.90;;;;;;5039132;28;20032;-86
2023/10/03 02:10:44;;;;;;;11.75;4.78;;;17.00;99.90;;;;;;5042304;28;20106;-84
2023/10/03 02:13:21;;;;;;;11.90;4.47;;;17.00;99.90;;;;;;5057973;28;20408;-86
2023/10/03 02:15:49;;;;;;;9.45;3.53;;;17.00;99.90;;;;;;5055680;28;20504;-85
2023/10/03 02:18:19;;;;;;;13.80;4.63;;;17.00;99.90;;;;;;5052966;28;20045;-84
2023/10/03 02:20:52;;;;;;;10.82;4.03;;;17.00;99.90;;;;;;5035561;28;20044;-85
2023/10/03 02:23:23;;;;;;;12.93;4.22;;;17.00;99.90;;;;;;5065518;28;20534;-86
2023/10/03 02:25:56;;;;;;;8.93;3.63;;;17.10;99.90;;;;;;5053827;28;20033;-85
2023/10/03 02:28:22;;;;;;;11.32;4.28;;;17.10;99.90;;;;;;5040764;28;20365;-85
2023/10/03 02:30:54;;;;;;;12.98;4.10;;;17.10;99.90;;;;;;5058548;28;20085;-84
2023/10/03 02:33:22;;;;;;;11.00;3.65;;;17.10;99.90;;;;;;5044462;28;20032;-85
2023/10/03 02:35:50;;;;;;;8.80;4.05;;;17.10;99.90;;;;;;5058447;28;20036;-85
2023/10/03 02:38:30;;;;;;;11.38;4.43;;;17.00;99.90;;;;;;5057862;28;20047;-83
2023/10/03 02:41:00;;;;;;;12.35;4.88;;;17.00;99.90;;;;;;5040201;28;20070;-85
2023/10/03 02:43:31;;;;;;;10.68;4.43;;;17.10;99.90;;;;;;5057442;28;20060;-85
2023/10/03 02:45:58;;;;;;;14.30;5.57;;;17.10;99.90;;;;;;5054387;28;20253;-86
2023/10/03 02:48:24;;;;;;;9.98;3.47;;;17.10;99.90;;;;;;5057850;28;20048;-85
2023/10/03 02:50:51;;;;;;;12.75;4.40;;;17.10;99.90;;;;;;5041035;28;20373;-85
2023/10/03 02:53:19;;;;;;;8.00;3.40;;;17.10;99.90;;;;;;5057213;28;20068;-85
2023/10/03 02:55:49;;;;;;;11.35;3.40;;;17.10;99.90;;;;;;5057691;28;20037;-85
2023/10/03 02:58:22;;;;;;;9.10;3.72;;;17.10;99.90;;;;;;5042381;28;20037;-85
2023/10/03 03:00:55;;;;;;;9.88;3.83;;;17.10;99.90;;;;;;5056347;28;20083;-85
2023/10/03 03:03:23;;;;;;;10.18;4.05;;;17.20;99.90;;;;;;5039854;28;20119;-86
2023/10/03 03:05:49;;;;;;;12.48;4.18;;;17.20;99.90;;;;;;5040081;28;20040;-86
2023/10/03 03:10:45;;;;;;;12.25;3.70;;;17.10;99.90;;;;;;5052352;28;20050;-85
2023/10/03 03:13:14;;;;;;;8.75;3.58;;;17.20;99.90;;;;;;5055753;28;20048;-86
2023/10/03 03:15:51;;;;;;;13.75;5.00;;;17.20;99.90;;;;;;5057220;28;20052;-85
2023/10/03 03:18:19;;;;;;;11.75;3.63;;;17.20;99.90;;;;;;5044078;28;20094;-85
2023/10/03 03:20:57;;;;;;;11.27;4.78;;;17.20;99.90;;;;;;5038670;28;20067;-86
2023/10/03 03:23:36;;;;;;;9.65;3.88;;;17.20;99.90;;;;;;5054460;28;20052;-85
2023/10/03 03:28:38;;;;;;;11.82;3.60;;;17.10;99.90;;;;;;5060270;28;20064;-85
2023/10/03 03:31:09;;;;;;;12.73;4.22;;;17.10;99.90;;;;;;5042138;28;20055;-85
2023/10/03 03:33:35;;;;;;;11.38;4.40;;;17.10;99.90;;;;;;5038684;28;20040;-85
2023/10/03 03:36:02;;;;;;;9.93;3.67;;;17.10;99.90;;;;;;5040117;28;20047;-85
2023/10/03 03:38:30;;;;;;;13.52;4.65;;;17.10;99.90;;;;;;5057852;28;20041;-85
2023/10/03 03:40:59;;;;;;;9.57;3.42;;;17.10;99.90;;;;;;5054967;28;20107;-85
2023/10/03 03:43:25;;;;;;;9.73;3.05;;;17.10;99.90;;;;;;5057335;28;20048;-84
2023/10/03 03:45:52;;;;;;;8.25;3.35;;;17.10;99.90;;;;;;5076643;28;20040;-85
2023/10/03 03:48:22;;;;;;;7.82;3.17;;;17.10;99.90;;;;;;5041688;28;20037;-85
2023/10/03 03:50:49;;;;;;;8.13;3.25;;;17.10;99.90;;;;;;5053664;28;20064;-86
2023/10/03 03:53:16;;;;;;;10.13;3.10;;;17.10;99.90;;;;;;5060211;28;20044;-85
2023/10/03 03:55:42;;;;;;;10.10;3.72;;;17.10;99.90;;;;;;5041863;28;20124;-85
2023/10/03 03:58:14;;;;;;;8.65;3.38;;;17.10;99.90;;;;;;5055985;28;20075;-85
2023/10/03 04:00:47;;;;;;;6.60;2.92;;;17.20;99.90;;;;;;5055736;28;20036;-86
2023/10/03 04:03:14;;;;;;;10.07;3.22;;;17.10;99.90;;;;;;5057623;28;20033;-86
2023/10/03 04:05:40;;;;;;;7.60;2.97;;;17.20;99.90;;;;;;5037835;28;20044;-85
2023/10/03 04:08:07;;;;;;;8.88;2.88;;;17.20;99.90;;;;;;5057378;28;20047;-86
2023/10/03 04:10:36;;;;;;;7.40;3.22;;;17.20;99.90;;;;;;5046417;28;20449;-85
2023/10/03 04:13:10;;;;;;;10.27;2.97;;;17.20;99.90;;;;;;5062836;28;20115;-85
2023/10/03 04:15:45;;;;;;;9.80;3.67;;;17.30;99.90;;;;;;5062409;28;20141;-85
2023/10/03 04:18:12;;;;;;;8.45;3.60;;;17.30;99.90;;;;;;5042091;28;20130;-85
2023/10/03 04:20:40;;;;;;;9.07;2.95;;;17.20;99.90;;;;;;5057982;28;20037;-85
2023/10/03 04:23:08;;;;;;;9.52;3.25;;;17.20;99.90;;;;;;5036937;28;20056;-85
2023/10/03 04:25:37;;;;;;;8.88;3.55;;;17.20;99.90;;;;;;5043125;28;20040;-86
2023/10/03 04:28:04;;;;;;;10.13;3.22;;;17.20;99.90;;;;;;5074202;28;20090;-86
2023/10/03 04:30:30;;;;;;;9.85;3.20;;;17.20;99.90;;;;;;5044198;28;20508;-85
2023/10/03 04:32:57;;;;;;;9.18;2.90;;;17.20;99.90;;;;;;5042991;28;20040;-86
2023/10/03 04:35:25;;;;;;;10.90;3.33;;;17.10;99.90;;;;;;5059798;28;20037;-85
2023/10/03 04:37:52;;;;;;;9.00;2.75;;;17.10;99.90;;;;;;5042220;28;20032;-85
2023/10/03 04:40:28;;;;;;;7.95;3.00;;;17.10;99.90;;;;;;5043904;28;20048;-85
2023/10/03 04:43:15;;;;;;;7.13;3.00;;;17.10;99.90;;;;;;5041416;28;20040;-85
2023/10/03 04:45:42;;;;;;;7.90;2.95;;;17.20;99.90;;;;;;5039497;28;20468;-85
2023/10/03 04:48:08;;;;;;;7.43;2.88;;;17.20;99.90;;;;;;5057992;28;20043;-85
2023/10/03 04:50:39;;;;;;;10.70;3.38;;;17.30;99.90;;;;;;5042607;28;20068;-86
2023/10/03 04:53:09;;;;;;;10.60;3.38;;;17.30;99.90;;;;;;5060854;28;20047;-85
2023/10/03 04:55:35;;;;;;;6.25;2.50;;;17.40;99.90;;;;;;5046059;28;20043;-85
2023/10/03 04:58:01;;;;;;;8.27;3.42;;;17.50;99.90;;;;;;5061082;28;20032;-86
2023/10/03 05:00:26;;;;;;;10.45;2.60;;;17.70;99.90;;;;;;5042218;28;20667;-85
2023/10/03 05:02:53;;;;;;;8.43;3.00;;;17.70;99.90;;;;;;5059459;28;20047;-85
2023/10/03 05:05:23;;;;;;;6.85;3.00;;;17.90;99.90;;;;;;5045314;28;20070;-85
2023/10/03 05:07:53;;;;;;;5.18;2.40;;;17.90;99.90;;;;;;5060070;28;20453;-85
2023/10/03 05:10:20;;;;;;;7.97;2.85;;;18.00;99.90;;;;;;5060021;28;20048;-86
2023/10/03 05:12:47;;;;;;;12.35;2.70;;;18.00;99.90;;;;;;5062117;28;20049;-85
2023/10/03 05:15:17;;;;;;;7.68;2.70;;;18.00;99.90;;;;;;5058728;28;20658;-86
2023/10/03 05:17:48;;;;;;;7.38;3.22;;;18.10;99.90;;;;;;5044217;28;20045;-85
2023/10/03 05:20:20;;;;;;;7.47;3.05;;;18.10;99.90;;;;;;5074620;28;20044;-84
2023/10/03 05:22:47;;;;;;;6.22;2.25;;;18.10;99.90;;;;;;5042679;28;20048;-85
2023/10/03 05:25:18;;;;;;;4.65;2.03;;;18.20;99.90;;;;;;5056024;28;20166;-85
2023/10/03 05:27:47;;;;;;;7.60;2.67;;;18.20;99.90;;;;;;5064372;28;20040;-85
2023/10/03 05:30:14;;;;;;;4.65;1.80;;;18.30;99.90;;;;;;5048577;28;20044;-84
2023/10/03 05:32:42;;;;;;;4.88;2.20;;;18.30;99.90;;;;;;5064970;28;20032;-85
2023/10/03 05:35:08;;;;;;;6.22;2.13;;;18.30;99.90;;;;;;5061505;28;20088;-85
2023/10/03 05:37:35;;;;;;;6.75;2.53;;;18.40;99.90;;;;;;5062696;28;20048;-85
2023/10/03 05:40:18;;;;;;;8.82;2.08;;;18.40;99.90;;;;;;5047779;28;20120;-85
2023/10/03 05:42:45;;;;;;;3.85;1.55;;;18.40;99.90;;;;;;5039562;28;20048;-85
2023/10/03 05:45:15;;;;;;;6.28;2.03;;;18.50;99.90;;;;;;5043241;28;20032;-85
2023/10/03 05:47:45;;;;;;;8.32;2.75;;;18.50;99.90;;;;;;5046882;28;20043;-85
2023/10/03 05:50:29;;;;;;;8.32;2.22;;;18.50;99.90;;;;;;5038678;28;20041;-85
2023/10/03 05:52:55;;;;;;;7.32;1.60;;;18.50;99.90;;;;;;5047930;28;20465;-85
2023/10/03 05:55:21;;;;;;;4.40;1.70;;;18.50;99.90;;;;;;5060734;28;20048;-85
2023/10/03 05:57:47;;;;;;;4.82;1.98;;;18.50;99.90;;;;;;5042326;28;20095;-85
2023/10/03 06:00:18;;;;;;;4.68;1.83;;;18.60;99.90;;;;;;5061807;28;20032;-85
2023/10/03 06:02:47;;;;;;;3.72;2.00;;;18.60;99.90;;;;;;5064597;28;20453;-85
2023/10/03 06:05:14;;;;;;;4.45;1.80;;;18.70;99.90;;;;;;5062741;28;20470;-85
2023/10/03 06:07:41;;;;;;;7.95;2.47;;;18.70;99.90;;;;;;5043193;28;20388;-85
2023/10/03 06:10:10;;;;;;;5.03;1.60;;;18.70;99.90;;;;;;5038310;28;20041;-86
2023/10/03 06:12:37;;;;;;;3.00;1.40;;;18.60;99.90;;;;;;5039951;28;20041;-86
2023/10/03 06:15:04;;;;;;;3.35;1.33;;;18.60;99.90;;;;;;5043932;28;20044;-84
2023/10/03 06:17:32;;;;;;;3.70;1.10;;;18.70;99.90;;;;;;5058004;28;20059;-85
2023/10/03 06:19:57;;;;;;;5.72;1.17;;;18.60;99.90;;;;;;5060958;28;20091;-85
2023/10/03 06:22:23;;;;;;;3.55;0.90;;;18.60;99.90;;;;;;5038941;28;20679;-86
2023/10/03 06:24:50;;;;;;;2.25;1.00;;;18.60;99.90;;;;;;5056732;28;20033;-85
2023/10/03 06:27:17;;;;;;;3.75;1.30;;;18.60;99.90;;;;;;5040856;28;20121;-85
2023/10/03 06:29:43;;;;;;;2.40;0.82;;;18.60;99.90;;;;;;5059753;28;20068;-85
2023/10/03 06:32:09;;;;;;;2.40;0.88;;;18.60;99.90;;;;;;5040608;28;20041;-85
2023/10/03 06:34:35;;;;;;;4.85;1.30;;;18.60;99.90;;;;;;5040519;28;20045;-84
2023/10/03 06:37:02;;;;;;;2.17;0.57;;;18.60;99.90;;;;;;5060293;28;20037;-84
2023/10/03 06:39:34;;;;;;;6.47;1.55;;;18.50;99.90;;;;;;5060954;28;20124;-85
2023/10/03 06:42:00;;;;;;;3.88;0.52;;;18.60;99.90;;;;;;5033970;28;20055;-85
2023/10/03 06:44:26;;;;;;;1.30;0.50;;;18.50;99.90;;;;;;5059304;28;20117;-84
2023/10/03 06:46:52;;;;;;;4.15;0.50;;;18.50;99.90;;;;;;5060091;28;20098;-84
2023/10/03 06:49:19;;;;;;;1.38;0.50;;;18.50;99.90;;;;;;5042167;28;20148;-84
2023/10/03 06:51:45;;;;;;;1.27;0.50;;;18.50;99.90;;;;;;5041647;28;20052;-84
2023/10/03 06:54:12;;;;;;;0.80;0.40;;;18.50;99.90;;;;;;5040360;28;20469;-85
2023/10/03 06:56:38;;;;;;;3.22;0.57;;;18.50;99.90;;;;;;5041436;28;20037;-85
2023/10/03 06:59:10;;;;;;;1.00;0.50;;;18.40;99.90;;;;;;5041544;28;20152;-85
2023/10/03 07:01:37;;;;;;;4.03;1.10;;;18.40;99.90;;;;;;5039626;28;20047;-86
2023/10/03 07:04:07;;;;;;;3.42;0.40;;;18.40;99.90;;;;;;5036791;28;20041;-86
2023/10/03 07:06:33;;;;;;;4.20;1.00;;;18.40;99.90;;;;;;5055150;28;20119;-84
2023/10/03 07:09:01;;;;;;;3.33;0.60;;;18.40;99.90;;;;;;5040824;28;20092;-86
2023/10/03 07:11:27;;;;;;;0.98;0.30;;;18.40;99.90;;;;;;5039380;28;20041;-83
2023/10/03 07:13:53;;;;;;;3.90;1.35;;;18.50;99.90;;;;;;5058949;28;20068;-84
2023/10/03 07:16:20;;;;;;;1.45;0.50;;;18.60;99.90;;;;;;5059883;28;20776;-84
2023/10/03 07:18:46;;;;;;;1.30;0.55;;;18.70;99.90;;;;;;5055277;28;20074;-84
2023/10/03 07:21:11;;;;;;;7.28;0.55;;;18.70;99.90;;;;;;5056541;28;20064;-85
2023/10/03 07:23:39;;;;;;;2.75;0.57;;;18.80;99.90;;;;;;5059537;28;20100;-84
2023/10/03 07:26:04;;;;;;;1.70;0.50;;;18.70;99.90;;;;;;5060729;28;20053;-84
2023/10/03 07:28:32;;;;;;;1.67;0.38;;;18.70;99.90;;;;;;5055308;28;20111;-84
2023/10/03 07:30:58;;;;;;;1.23;0.52;;;18.60;99.90;;;;;;5057900;28;20068;-86
2023/10/03 07:33:23;;;;;;;1.40;0.32;;;18.50;99.90;;;;;;5040715;28;20048;-84
2023/10/03 07:35:49;;;;;;;7.57;0.88;;;18.30;99.90;;;;;;5037887;28;20532;-84
2023/10/03 07:38:15;;;;;;;0.57;0.35;;;18.20;99.90;;;;;;5053939;28;20044;-84
2023/10/03 07:40:41;;;;;;;2.25;0.75;;;18.10;99.90;;;;;;5059943;28;20048;-84
2023/10/03 07:43:12;;;;;;;0.93;0.60;;;18.10;99.90;;;;;;5043755;28;20037;-84
2023/10/03 07:45:40;;;;;;;0.47;0.40;;;18.00;99.90;;;;;;5057779;28;20044;-83
2023/10/03 07:48:06;;;;;;;3.05;0.70;;;18.00;99.90;;;;;;5058923;28;20645;-84
2023/10/03 07:50:37;;;;;;;1.65;0.77;;;18.00;99.90;;;;;;5043995;28;20461;-84
2023/10/03 07:53:11;;;;;;;0.95;0.55;;;18.00;99.90;;;;;;5061008;28;20049;-82
2023/10/03 07:55:38;;;;;;;1.45;0.40;;;18.00;99.90;;;;;;5060917;28;20037;-82
2023/10/03 07:58:05;;;;;;;1.95;0.93;;;17.90;99.90;;;;;;5041569;28;20125;-81
2023/10/03 08:00:31;;;;;;;1.13;0.52;;;17.90;99.90;;;;;;5063432;28;20047;-83
2023/10/03 08:02:58;;;;;;;1.05;0.50;;;17.80;99.90;;;;;;5065264;28;20044;-81
2023/10/03 08:05:27;;;;;;;1.17;0.70;;;17.80;99.90;;;;;;5067672;28;20036;-81
2023/10/03 08:07:57;;;;;;;1.75;0.85;;;17.70;99.90;;;;;;5066346;28;20096;-81
2023/10/03 08:10:28;;;;;;;1.17;0.50;;;17.70;99.90;;;;;;5067513;28;20041;-83
2023/10/03 08:12:55;;;;;;;1.52;0.47;;;17.60;99.90;;;;;;5066638;28;20049;-84
2023/10/03 08:15:21;;;;;;;1.45;0.50;;;17.50;99.90;;;;;;5064981;28;20095;-82
2023/10/03 08:17:49;;;;;;;2.53;0.77;;;17.50;99.90;;;;;;5050711;28;20476;-81
2023/10/03 08:20:18;;;;;;;1.13;0.40;;;17.50;99.90;;;;;;5066393;28;20068;-82
2023/10/03 08:22:50;;;;;;;2.53;0.77;;;17.40;99.90;;;;;;5065869;28;20048;-81
2023/10/03 08:25:21;;;;;;;1.50;0.47;;;17.40;99.90;;;;;;5045409;28;20032;-83
2023/10/03 08:27:50;;;;;;;2.45;0.63;;;17.40;99.90;;;;;;5065403;28;20049;-82
2023/10/03 08:30:28;;;;;;;1.55;0.40;;;17.40;99.90;;;;;;5047725;28;20127;-82
2023/10/03 08:33:00;;;;;;;1.58;0.63;;;17.30;99.90;;;;;;5061873;28;20175;-83
2023/10/03 08:35:37;;;;;;;2.83;0.47;;;17.30;99.90;;;;;;5062953;28;20052;-81
2023/10/03 08:38:08;;;;;;;1.48;0.38;;;17.20;99.90;;;;;;5047943;28;20460;-82
2023/10/03 08:40:40;;;;;;;1.80;0.30;;;17.10;99.90;;;;;;5062846;28;20477;-83
2023/10/03 08:43:10;;;;;;;2.03;0.40;;;17.10;99.90;;;;;;5064559;28;20073;-82
2023/10/03 08:45:42;;;;;;;0.30;0.10;;;17.10;99.90;;;;;;5045110;28;20045;-83
2023/10/03 08:48:09;;;;;;;0.98;0.10;;;17.10;99.90;;;;;;5047470;28;20041;-82
2023/10/03 08:50:52;;;;;;;0.93;0.32;;;17.10;99.90;;;;;;5045133;28;20048;-82
2023/10/03 08:53:26;;;;;;;0.52;0.20;;;17.00;99.90;;;;;;5058535;28;20052;-83
2023/10/03 08:56:03;;;;;;;0.35;0.13;;;17.00;99.90;;;;;;5062246;28;20346;-82
2023/10/03 08:58:29;;;;;;;1.52;0.20;;;16.90;99.90;;;;;;5061873;28;20052;-83
2023/10/03 09:01:02;;;;;;;3.63;0.30;;;16.90;99.90;;;;;;5047147;28;20037;-82
2023/10/03 09:03:47;;;;;;;0.70;0.30;;;16.90;99.90;;;;;;5046992;28;20101;-83
2023/10/03 09:06:19;;;;;;;1.85;0.40;;;16.90;99.90;;;;;;5062193;28;20127;-82
2023/10/03 09:08:50;;;;;;;1.45;0.30;;;16.90;99.90;;;;;;5044225;28;20049;-82
2023/10/03 09:11:20;;;;;;;0.20;0.10;;;16.90;99.90;;;;;;5063690;28;20043;-82
2023/10/03 09:13:49;;;;;;;3.92;1.17;;;16.90;99.90;;;;;;5047642;28;20044;-82
2023/10/03 09:16:15;;;;;;;0.10;0.00;;;17.00;99.90;;;;;;5060231;28;20109;-82
2023/10/03 09:18:41;;;;;;;2.00;0.40;;;17.00;99.90;;;;;;5064211;28;20049;-82
2023/10/03 09:21:15;;;;;;;2.17;0.30;;;17.10;99.90;;;;;;5052453;28;20043;-83
2023/10/03 09:24:12;;;;;;;0.00;0.00;;;17.00;99.90;;;;;;5032669;28;20370;-83
2023/10/03 09:26:50;;;;;;;0.00;0.00;;;16.90;99.90;;;;;;5047768;28;20279;-84
2023/10/03 09:29:29;;;;;;;0.10;0.00;;;16.60;99.90;;;;;;5033515;28;20053;-83
2023/10/03 09:32:00;;;;;;;0.38;0.00;;;16.30;99.90;;;;;;5031603;28;20493;-83
2023/10/03 09:34:32;;;;;;;0.43;0.15;;;16.10;99.90;;;;;;5033687;28;20045;-83
2023/10/03 09:37:05;;;;;;;0.25;0.00;;;16.00;99.90;;;;;;5033432;28;20040;-82
2023/10/03 09:39:50;;;;;;;0.95;0.47;;;15.90;99.90;;;;;;5033981;28;20041;-83
2023/10/03 09:42:16;;;;;;;1.55;0.22;;;15.90;99.90;;;;;;5028941;28;20044;-83
2023/10/03 09:44:48;;;;;;;0.93;0.10;;;15.90;99.90;;;;;;5051003;28;20041;-83
2023/10/03 09:47:27;;;;;;;0.65;0.00;;;15.90;99.90;;;;;;5031831;28;20040;-82
2023/10/03 09:50:03;;;;;;;0.10;0.00;;;15.80;99.90;;;;;;5032004;28;20123;-83
2023/10/03 09:52:30;;;;;;;0.30;0.00;;;15.80;99.90;;;;;;5031942;28;20037;-81
2023/10/03 09:55:00;;;;;;;0.10;0.00;;;15.80;99.90;;;;;;5047056;28;20071;-83
2023/10/03 09:57:29;;;;;;;0.10;0.00;;;15.80;99.90;;;;;;5047533;28;20132;-84
2023/10/03 09:59:56;;;;;;;0.10;0.00;;;15.80;99.90;;;;;;5050658;28;20037;-84
2023/10/03 10:02:31;;;;;;;0.00;0.00;;;15.90;99.90;;;;;;5047675;28;20060;-83
2023/10/03 10:05:19;;;;;;;1.58;0.10;;;15.90;99.90;;;;;;5049116;28;20195;-83
2023/10/03 10:08:13;;;;;;;2.47;0.00;;;15.90;99.90;;;;;;5025846;28;20051;-83
2023/10/03 10:10:41;;;;;;;0.00;0.00;;;15.90;99.90;;;;;;5032987;28;20084;-83
2023/10/03 10:13:20;;;;;;;1.02;0.00;;;15.90;99.90;;;;;;5031034;28;20103;-83
2023/10/03 10:16:07;;;;;;;0.47;0.00;;;15.90;99.90;;;;;;5033517;28;20461;-84
2023/10/03 10:18:45;;;;;;;0.10;0.00;;;15.90;99.90;;;;;;5046686;28;20053;-83
2023/10/03 10:21:24;;;;;;;0.30;0.08;;;15.90;99.90;;;;;;5030995;28;20086;-83
2023/10/03 10:24:20;;;;;;;0.10;0.00;;;15.90;99.90;;;;;;5029866;28;20550;-83
2023/10/03 10:26:53;;;;;;;0.00;0.00;;;15.80;99.90;;;;;;5043983;28;20901;-83
2023/10/03 10:29:19;;;;;;;0.15;0.00;;;15.80;99.90;;;;;;5029062;28;20564;-83
2023/10/03 10:32:07;;;;;;;0.40;0.08;;;15.80;99.90;;;;;;5026736;28;20037;-83
2023/10/03 10:34:35;;;;;;;0.98;0.00;;;15.80;99.90;;;;;;5048790;28;20082;-83
2023/10/03 10:37:09;;;;;;;0.55;0.17;;;15.90;99.90;;;;;;5046214;28;20052;-83
2023/10/03 10:39:56;;;;;;;0.45;0.00;;;15.90;99.90;;;;;;5032847;28;20457;-85
2023/10/03 10:42:26;;;;;;;0.20;0.00;;;16.00;99.90;;;;;;5021063;28;20041;-83
2023/10/03 10:45:09;;;;;;;0.15;0.05;;;16.00;99.90;;;;;;5032876;28;20029;-83
2023/10/03 10:47:42;;;;;;;1.38;0.25;;;16.00;99.90;;;;;;5043223;28;20110;-83
2023/10/03 10:50:08;;;;;;;3.97;0.30;;;16.00;99.90;;;;;;5048509;28;20025;-82
2023/10/03 10:53:02;;;;;;;1.75;0.45;;;16.00;99.90;;;;;;5047029;28;20047;-82
2023/10/03 10:55:28;;;;;;;2.13;0.00;;;16.00;99.90;;;;;;5031860;28;20040;-82
2023/10/03 10:58:02;;;;;;;0.40;0.10;;;16.00;99.90;;;;;;5030963;28;20501;-82
2023/10/03 11:00:28;;;;;;;0.15;0.03;;;16.00;99.90;;;;;;5047775;28;20043;-83
2023/10/03 11:02:54;;;;;;;0.28;0.10;;;16.00;99.90;;;;;;5029416;28;20545;-82
2023/10/03 11:05:19;;;;;;;0.80;0.00;;;16.00;99.90;;;;;;5032408;28;20532;-82
2023/10/03 11:07:53;;;;;;;0.65;0.10;;;16.10;99.90;;;;;;5031443;28;20056;-82
2023/10/03 11:10:21;;;;;;;0.25;0.00;;;16.20;99.90;;;;;;5046075;28;20437;-83
2023/10/03 11:12:58;;;;;;;0.25;0.10;;;16.30;99.90;;;;;;5032255;28;20037;-83
2023/10/03 11:15:24;;;;;;;0.55;0.05;;;16.30;99.90;;;;;;5028792;28;20041;-82
2023/10/03 11:17:50;;;;;;;0.08;0.00;;;16.40;99.90;;;;;;5051784;28;20032;-82
2023/10/03 11:20:16;;;;;;;2.35;0.05;;;16.60;99.90;;;;;;5048989;28;20700;-83
2023/10/03 11:22:44;;;;;;;1.60;0.20;;;16.70;99.90;;;;;;5036518;28;20465;-82
2023/10/03 11:25:11;;;;;;;0.30;0.22;;;16.90;99.90;;;;;;5049455;28;20045;-82
2023/10/03 11:27:37;;;;;;;0.25;0.00;;;17.00;99.90;;;;;;5053667;28;20067;-82
2023/10/03 11:30:18;;;;;;;1.90;0.30;;;16.90;99.90;;;;;;5034274;28;20041;-82
2023/10/03 11:32:44;;;;;;;2.00;0.30;;;16.70;99.90;;;;;;5034766;28;20045;-82
2023/10/03 11:35:21;;;;;;;0.20;0.10;;;16.60;99.90;;;;;;5051058;28;20078;-82
2023/10/03 11:37:48;;;;;;;0.85;0.00;;;16.50;99.90;;;;;;5034710;28;20044;-83
2023/10/03 11:40:21;;;;;;;0.80;0.10;;;16.40;99.90;;;;;;5050583;28;20051;-82
2023/10/03 11:42:47;;;;;;;0.28;0.00;;;16.20;99.90;;;;;;5051445;28;20390;-82
2023/10/03 11:45:21;;;;;;;0.00;0.00;;;16.10;99.90;;;;;;5038098;28;20497;-82
2023/10/03 11:48:07;;;;;;;1.38;0.20;;;16.00;99.90;;;;;;5027381;28;20440;-83
2023/10/03 11:50:40;;;;;;;0.43;0.20;;;15.90;99.90;;;;;;5043812;28;20069;-84
2023/10/03 11:53:10;;;;;;;1.10;0.13;;;15.70;99.90;;;;;;5032117;28;20032;-85
2023/10/03 11:55:36;;;;;;;0.57;0.08;;;15.50;99.90;;;;;;5028470;28;20117;-84
2023/10/03 11:58:05;;;;;;;0.85;0.20;;;15.20;99.90;;;;;;5034443;28;20048;-84
2023/10/03 12:00:31;;;;;;;1.58;0.30;;;15.00;99.90;;;;;;5049492;28;20041;-84
2023/10/03 12:02:57;;;;;;;0.55;0.15;;;14.90;99.90;;;;;;5048768;28;20048;-84
2023/10/03 12:05:23;;;;;;;0.17;0.00;;;14.80;99.90;;;;;;5046537;28;20037;-83
2023/10/03 12:07:50;;;;;;;0.80;0.10;;;14.70;99.90;;;;;;5048299;28;20076;-83
2023/10/03 12:10:17;;;;;;;3.67;0.55;;;14.60;99.90;;;;;;5015476;28;20141;-83
2023/10/03 12:12:44;;;;;;;3.65;0.50;;;14.50;99.90;;;;;;5012968;28;20045;-83
2023/10/03 12:15:14;;;;;;;0.57;0.15;;;14.40;99.90;;;;;;5007012;28;20100;-84
2023/10/03 12:17:47;;;;;;;1.55;0.20;;;14.40;99.90;;;;;;5026565;28;20041;-84
2023/10/03 12:20:15;;;;;;;0.55;0.22;;;14.40;99.90;;;;;;5011330;28;20049;-83
2023/10/03 12:22:42;;;;;;;0.65;0.13;;;14.40;99.90;;;;;;5051319;28;20025;-81
2023/10/03 12:25:09;;;;;;;1.55;0.13;;;14.50;99.90;;;;;;5053036;28;20101;-82
2023/10/03 12:27:36;;;;;;;3.55;0.32;;;14.40;99.90;;;;;;5038677;28;20666;-80
2023/10/03 12:30:04;;;;;;;0.32;0.10;;;14.40;99.90;;;;;;5051623;28;20106;-81
2023/10/03 12:32:34;;;;;;;1.50;0.32;;;14.40;99.90;;;;;;5045610;28;20067;-82
2023/10/03 12:35:01;;;;;;;0.30;0.10;;;14.40;99.90;;;;;;5031283;28;20060;-81
2023/10/03 12:37:26;;;;;;;0.20;0.10;;;14.40;99.90;;;;;;5047530;28;20037;-81
2023/10/03 12:39:52;;;;;;;1.20;0.43;;;14.50;99.90;;;;;;5032908;28;20072;-82
2023/10/03 12:42:18;;;;;;;1.70;0.55;;;14.50;99.90;;;;;;5032237;28;20039;-81
2023/10/03 12:44:44;;;;;;;0.95;0.40;;;14.70;99.90;;;;;;5050271;28;20073;-80
2023/10/03 12:47:09;;;;;;;1.08;0.17;;;14.70;99.90;;;;;;5033944;28;20037;-82
2023/10/03 12:49:35;;;;;;;0.50;0.20;;;14.80;99.90;;;;;;5050159;28;20053;-82
2023/10/03 12:52:02;;;;;;;0.65;0.10;;;15.10;99.90;;;;;;5031995;28;20052;-81
2023/10/03 12:54:27;;;;;;;3.05;0.75;;;15.30;99.90;;;;;;5049848;28;20049;-81
2023/10/03 12:56:53;;;;;;;2.17;0.30;;;15.50;99.90;;;;;;5031141;28;20053;-83
2023/10/03 12:59:19;;;;;;;2.83;0.38;;;15.80;99.90;;;;;;5048353;28;20499;-82
2023/10/03 13:01:47;;;;;;;2.90;0.65;;;15.80;99.90;;;;;;5047088;28;20052;-82